createdAt,value
2023-04-19T00:00:27.975Z,1996
2023-04-19T00:05:45.933Z,2020
2023-04-19T00:11:04.283Z,2019
2023-04-19T00:16:22.631Z,2034
2023-04-19T00:21:40.819Z,2042
2023-04-19T00:26:59.141Z,2042
2023-04-19T00:32:17.420Z,2048
2023-04-19T00:37:35.686Z,2055
2023-04-19T00:42:54.038Z,2072
2023-04-19T00:48:12.550Z,2078
2023-04-19T00:53:30.758Z,2082
2023-04-19T00:58:49.118Z,2083
2023-04-19T01:03:52.171Z,2091
2023-04-19T01:09:11.058Z,2089
2023-04-19T01:14:29.407Z,2083
2023-04-19T01:19:47.992Z,2088
2023-04-19T01:25:06.141Z,2086
2023-04-19T01:30:24.455Z,2081
2023-04-19T01:35:42.665Z,2092
2023-04-19T01:41:01.175Z,2110
2023-04-19T01:46:19.735Z,2106
2023-04-19T01:51:38.180Z,2106
2023-04-19T01:56:41.125Z,2099
2023-04-19T02:01:59.741Z,2090
2023-04-19T02:07:18.305Z,2115
2023-04-19T02:12:36.635Z,2119
2023-04-19T02:17:54.987Z,2114
2023-04-19T02:23:13.205Z,2110
2023-04-19T02:28:31.615Z,2113
2023-04-19T02:33:49.994Z,2108
2023-04-19T02:39:08.029Z,2122
2023-04-19T02:44:26.355Z,2121
2023-04-19T02:49:44.483Z,2137
2023-04-19T02:55:03.004Z,2132
2023-04-19T03:00:21.346Z,2126
2023-04-19T03:05:39.474Z,2116
2023-04-19T03:10:57.780Z,2132
2023-04-19T03:16:16.122Z,2141
2023-04-19T03:21:34.680Z,2154
2023-04-19T03:26:52.926Z,2123
2023-04-19T03:32:11.118Z,2125
2023-04-19T03:37:29.472Z,2124
2023-04-19T03:42:47.967Z,2117
2023-04-19T03:48:06.413Z,2100
2023-04-19T03:53:25.012Z,2067
2023-04-19T03:58:43.206Z,2058
2023-04-19T04:04:04.117Z,2031
2023-04-19T04:09:23.692Z,1982
2023-04-19T04:14:41.906Z,1949
2023-04-19T04:20:00.344Z,1920
2023-04-19T04:25:19.551Z,1894
2023-04-19T04:30:41.435Z,1860
2023-04-19T04:35:59.842Z,1686
2023-04-19T04:41:17.998Z,1255
2023-04-19T04:46:37.321Z,1114
2023-04-19T04:51:55.767Z,1051
2023-04-19T04:57:14.117Z,1002
2023-04-19T05:02:32.543Z,999
2023-04-19T05:07:51.369Z,1069
2023-04-19T05:13:09.682Z,1098
2023-04-19T05:18:28.047Z,1124
2023-04-19T05:23:46.370Z,1143
2023-04-19T05:29:04.682Z,1150
2023-04-19T05:34:23.333Z,1146
2023-04-19T05:39:43.618Z,1153
2023-04-19T05:45:04.003Z,1148
2023-04-19T05:50:24.378Z,1145
2023-04-19T05:55:42.770Z,1139
2023-04-19T06:01:00.808Z,1134
2023-04-19T06:11:51.445Z,1132
2023-04-19T06:17:10.024Z,1126
2023-04-19T06:22:28.619Z,1126
2023-04-19T06:27:47.413Z,1126
2023-04-19T07:17:22.102Z,1069
2023-04-19T07:22:40.553Z,1069
2023-04-19T07:27:58.956Z,1065
2023-04-19T07:33:17.560Z,1060
2023-04-19T07:38:35.897Z,1060
2023-04-19T07:43:53.840Z,1054
2023-04-19T07:49:12.148Z,1046
2023-04-19T07:54:30.560Z,1043
2023-04-19T07:59:49.299Z,1029
2023-04-19T08:05:08.098Z,1025
2023-04-19T08:10:27.219Z,1028
2023-04-19T08:21:49.792Z,1017
2023-04-19T08:27:07.960Z,1018
2023-04-19T08:32:26.499Z,1013
2023-04-19T08:37:45.771Z,1016
2023-04-19T08:43:04.232Z,1011
2023-04-19T08:48:22.237Z,1008
2023-04-19T08:53:41.312Z,1014
2023-04-19T08:59:11.394Z,1012
2023-04-19T09:04:39.048Z,1005
2023-04-19T09:10:02.693Z,1009
2023-04-19T09:15:23.247Z,1005
2023-04-19T09:20:41.434Z,995
2023-04-19T09:26:21.843Z,999
2023-04-19T09:31:51.232Z,998
2023-04-19T09:37:15.049Z,991
2023-04-19T09:43:26.191Z,987
2023-04-19T09:49:54.031Z,980
2023-04-19T09:55:22.705Z,979
2023-04-19T10:00:55.054Z,976
2023-04-19T10:06:46.170Z,977
2023-04-19T10:13:07.344Z,972
2023-04-19T10:18:41.741Z,965
2023-04-19T10:23:59.892Z,960
2023-04-19T10:29:18.338Z,955
2023-04-19T10:34:36.903Z,950
2023-04-19T10:39:55.046Z,944
2023-04-19T10:45:13.445Z,948
2023-04-19T10:50:32.010Z,950
2023-04-19T10:55:50.590Z,952
2023-04-19T11:01:08.961Z,955
2023-04-19T11:06:27.348Z,954
2023-04-19T11:11:45.745Z,961
2023-04-19T11:17:04.360Z,972
2023-04-19T11:22:23.341Z,985
2023-04-19T11:27:41.840Z,988
2023-04-19T11:33:00.477Z,988
2023-04-19T11:38:19.098Z,987
2023-04-19T11:43:37.419Z,968
2023-04-19T11:48:55.721Z,978
2023-04-19T11:54:14.385Z,979
2023-04-19T11:59:33.721Z,986
2023-04-19T12:04:52.068Z,984
2023-04-19T12:10:11.079Z,982
2023-04-19T12:15:29.547Z,986
2023-04-19T12:20:48.047Z,983
2023-04-19T12:26:06.411Z,992
2023-04-19T12:31:24.894Z,998
2023-04-19T12:36:43.539Z,994
2023-04-19T12:42:02.062Z,993
2023-04-19T12:47:20.352Z,988
2023-04-19T12:52:38.729Z,987
2023-04-19T12:57:57.324Z,991
2023-04-19T13:03:15.669Z,990
2023-04-19T13:08:44.514Z,1041
2023-04-19T13:14:08.956Z,1029
2023-04-19T13:19:26.968Z,1021
2023-04-19T13:24:44.946Z,1009
2023-04-19T13:30:03.610Z,1012
2023-04-19T13:35:21.844Z,1008
2023-04-19T13:40:41.157Z,1007
2023-04-19T13:45:59.935Z,1014
2023-04-19T13:51:18.114Z,1019
2023-04-19T13:56:36.474Z,1018
2023-04-19T14:01:54.964Z,1013
2023-04-19T14:07:13.937Z,1026
2023-04-19T14:12:32.240Z,1030
2023-04-19T14:17:50.529Z,1032
2023-04-19T14:23:08.630Z,1040
2023-04-19T14:28:30.147Z,1047
2023-04-19T14:33:48.622Z,1048
2023-04-19T14:39:06.921Z,1041
2023-04-19T14:44:26.798Z,1038
2023-04-19T14:49:45.072Z,1047
2023-04-19T14:55:03.326Z,1050
2023-04-19T15:00:21.704Z,1053
2023-04-19T15:05:39.913Z,1055
2023-04-19T15:10:58.254Z,1061
2023-04-19T15:16:16.727Z,1064
2023-04-19T15:21:34.985Z,1070
2023-04-19T15:26:53.665Z,1090
2023-04-19T15:32:11.794Z,1094
2023-04-19T15:37:30.205Z,1106
2023-04-19T15:42:49.647Z,1090
2023-04-19T15:48:07.849Z,1110
2023-04-19T15:53:26.302Z,900
2023-04-19T15:58:44.865Z,978
2023-04-19T16:04:03.309Z,1017
2023-04-19T16:09:22.782Z,1064
2023-04-19T16:14:41.149Z,1108
2023-04-19T16:19:59.584Z,1143
2023-04-19T16:25:18.231Z,1177
2023-04-19T16:30:36.449Z,1238
2023-04-19T16:35:54.849Z,1103
2023-04-19T16:41:13.339Z,1176
2023-04-19T16:46:31.955Z,1208
2023-04-19T16:51:50.715Z,1233
2023-04-19T16:57:09.062Z,1266
2023-04-19T17:02:27.614Z,1291
2023-04-19T17:07:46.596Z,1319
2023-04-19T17:13:05.021Z,1337
2023-04-19T17:18:23.234Z,1360
2023-04-19T17:23:41.506Z,1391
2023-04-19T17:29:01.874Z,1420
2023-04-19T17:34:20.480Z,1429
2023-04-19T17:39:40.231Z,1427
2023-04-19T17:44:58.771Z,1416
2023-04-19T17:50:17.275Z,1409
2023-04-19T17:55:35.613Z,1406
2023-04-19T18:00:54.455Z,1393
2023-04-19T18:06:13.095Z,1386
2023-04-19T18:11:31.669Z,1382
2023-04-19T18:16:49.930Z,1376
2023-04-19T18:22:08.723Z,1366
2023-04-19T18:27:26.864Z,1365
2023-04-19T18:32:45.188Z,1330
2023-04-19T18:38:03.642Z,1321
2023-04-19T18:43:21.763Z,1304
2023-04-19T18:48:40.055Z,1291
2023-04-19T18:53:58.768Z,1281
2023-04-19T18:59:17.395Z,1258
2023-04-19T19:10:22.004Z,1253
2023-04-19T19:16:17.520Z,1249
2023-04-19T19:21:38.451Z,1245
2023-04-19T19:27:01.364Z,1240
2023-04-19T19:32:33.305Z,1238
2023-04-19T19:37:53.011Z,1228
2023-04-19T19:43:11.391Z,1218
2023-04-19T19:48:30.433Z,1209
2023-04-19T19:53:58.430Z,1194
2023-04-19T19:59:17.621Z,1195
2023-04-19T20:04:39.360Z,1196
2023-04-19T20:10:01.088Z,1216
2023-04-19T20:15:19.493Z,1235
2023-04-19T20:20:37.641Z,1252
2023-04-19T20:25:56.163Z,1249
2023-04-19T20:31:14.698Z,1265
2023-04-19T20:36:33.273Z,1276
2023-04-19T20:41:54.501Z,1294
2023-04-19T20:47:12.629Z,1299
2023-04-19T20:52:31.022Z,1326
2023-04-19T20:57:49.248Z,1355
2023-04-19T21:03:07.848Z,1384
2023-04-19T21:08:27.079Z,1395
2023-04-19T21:13:45.718Z,1402
2023-04-19T21:19:04.079Z,1414
2023-04-19T21:24:22.366Z,1425
2023-04-19T21:29:40.446Z,1438
2023-04-19T21:34:58.649Z,1446
2023-04-19T21:40:16.988Z,1455
2023-04-19T21:45:35.523Z,1463
2023-04-19T21:50:54.060Z,1463
2023-04-19T21:56:12.647Z,1463
2023-04-19T22:01:31.090Z,1465
2023-04-19T22:06:49.221Z,1468
2023-04-19T22:12:07.556Z,1471
2023-04-19T22:17:25.752Z,1482
2023-04-19T22:22:43.886Z,1484
2023-04-19T22:28:02.281Z,1488
2023-04-19T22:33:23.210Z,1486
2023-04-19T22:38:41.585Z,1490
2023-04-19T22:43:59.787Z,1493
2023-04-19T22:49:19.010Z,1507
2023-04-19T22:54:37.346Z,1523
2023-04-19T22:59:55.548Z,1519
2023-04-19T23:05:13.709Z,1524
2023-04-19T23:10:31.822Z,1534
2023-04-19T23:15:50.130Z,1543
2023-04-19T23:21:08.451Z,1549
2023-04-19T23:26:26.921Z,1544
2023-04-19T23:31:45.594Z,1573
2023-04-19T23:37:04.736Z,1612
2023-04-19T23:42:23.147Z,1662
2023-04-19T23:47:41.558Z,1720
2023-04-19T23:52:59.939Z,1759
2023-04-19T23:58:18.505Z,1791
